sensor_id;sensor_type;location;lat;lon;timestamp;pressure;altitude;pressure_sealevel;temperature;humidity
77939;BME280;67136;47.546;21.630;2023-04-03T00:00:02;99910.94;;;5.82;86.70
77939;BME280;67136;47.546;21.630;2023-04-03T00:03:07;99916.22;;;5.80;86.75
77939;BME280;67136;47.546;21.630;2023-04-03T00:06:10;99907.59;;;5.80;86.75
77939;BME280;67136;47.546;21.630;2023-04-03T00:09:13;99908.87;;;5.99;82.68
77939;BME280;67136;47.546;21.630;2023-04-03T00:12:17;99909.69;;;6.00;83.44
77939;BME280;67136;47.546;21.630;2023-04-03T00:15:19;99911.06;;;5.93;84.05
77939;BME280;67136;47.546;21.630;2023-04-03T00:18:22;99908.47;;;5.93;83.83
77939;BME280;67136;47.546;21.630;2023-04-03T00:21:25;99914.47;;;5.93;83.27
77939;BME280;67136;47.546;21.630;2023-04-03T00:24:28;99911.06;;;5.93;82.60
77939;BME280;67136;47.546;21.630;2023-04-03T00:27:31;99913.22;;;5.99;81.83
77939;BME280;67136;47.546;21.630;2023-04-03T00:30:33;99918.19;;;6.02;80.36
77939;BME280;67136;47.546;21.630;2023-04-03T00:33:36;99918.63;;;5.96;80.55
77939;BME280;67136;47.546;21.630;2023-04-03T00:36:39;99924.22;;;5.90;81.77
77939;BME280;67136;47.546;21.630;2023-04-03T00:39:42;99925.06;;;5.90;80.48
77939;BME280;67136;47.546;21.630;2023-04-03T00:42:47;99925.19;;;5.89;80.40
77939;BME280;67136;47.546;21.630;2023-04-03T00:45:52;99929.62;;;5.87;80.70
77939;BME280;67136;47.546;21.630;2023-04-03T00:48:55;99933.19;;;5.86;80.46
77939;BME280;67136;47.546;21.630;2023-04-03T00:51:58;99941.88;;;5.85;79.67
77939;BME280;67136;47.546;21.630;2023-04-03T00:55:04;99945.09;;;5.76;79.88
77939;BME280;67136;47.546;21.630;2023-04-03T00:58:08;99946.00;;;5.75;80.38
77939;BME280;67136;47.546;21.630;2023-04-03T01:01:15;99951.62;;;5.69;80.28
77939;BME280;67136;47.546;21.630;2023-04-03T01:04:35;99953.78;;;5.75;79.98
77939;BME280;67136;47.546;21.630;2023-04-03T01:07:42;99955.75;;;5.71;79.80
77939;BME280;67136;47.546;21.630;2023-04-03T01:10:44;99948.28;;;5.67;79.33
77939;BME280;67136;47.546;21.630;2023-04-03T01:13:48;99956.06;;;5.67;80.07
77939;BME280;67136;47.546;21.630;2023-04-03T01:16:53;99949.34;;;5.64;79.58
77939;BME280;67136;47.546;21.630;2023-04-03T01:23:25;99958.25;;;5.60;78.81
77939;BME280;67136;47.546;21.630;2023-04-03T01:26:29;99977.25;;;5.61;77.89
77939;BME280;67136;47.546;21.630;2023-04-03T01:29:32;99969.75;;;5.56;78.62
77939;BME280;67136;47.546;21.630;2023-04-03T01:32:35;99972.97;;;5.60;77.84
77939;BME280;67136;47.546;21.630;2023-04-03T01:35:38;99980.88;;;5.58;78.27
77939;BME280;67136;47.546;21.630;2023-04-03T01:38:41;99976.84;;;5.54;78.36
77939;BME280;67136;47.546;21.630;2023-04-03T01:41:43;99991.66;;;5.52;78.39
77939;BME280;67136;47.546;21.630;2023-04-03T01:44:46;99994.16;;;5.54;78.98
77939;BME280;67136;47.546;21.630;2023-04-03T01:47:49;99995.25;;;5.50;78.27
77939;BME280;67136;47.546;21.630;2023-04-03T01:50:53;99987.50;;;5.50;78.55
77939;BME280;67136;47.546;21.630;2023-04-03T01:53:56;100008.22;;;5.50;78.35
77939;BME280;67136;47.546;21.630;2023-04-03T01:56:59;99986.16;;;5.57;77.99
77939;BME280;67136;47.546;21.630;2023-04-03T02:00:02;99996.53;;;5.57;76.77
77939;BME280;67136;47.546;21.630;2023-04-03T02:03:13;99994.16;;;5.54;77.85
77939;BME280;67136;47.546;21.630;2023-04-03T02:06:17;99986.84;;;5.46;77.52
77939;BME280;67136;47.546;21.630;2023-04-03T02:09:20;99990.41;;;5.45;77.50
77939;BME280;67136;47.546;21.630;2023-04-03T02:12:23;99980.88;;;5.46;77.98
77939;BME280;67136;47.546;21.630;2023-04-03T02:15:26;99985.22;;;5.45;78.03
77939;BME280;67136;47.546;21.630;2023-04-03T02:18:28;99985.69;;;5.38;77.56
77939;BME280;67136;47.546;21.630;2023-04-03T02:21:31;99997.22;;;5.34;77.62
77939;BME280;67136;47.546;21.630;2023-04-03T02:24:34;99998.06;;;5.34;77.28
77939;BME280;67136;47.546;21.630;2023-04-03T02:27:36;99989.75;;;5.29;77.16
77939;BME280;67136;47.546;21.630;2023-04-03T02:30:39;99993.91;;;5.32;76.98
77939;BME280;67136;47.546;21.630;2023-04-03T02:33:41;99997.81;;;5.25;76.58
77939;BME280;67136;47.546;21.630;2023-04-03T02:36:45;99992.53;;;5.26;77.18
77939;BME280;67136;47.546;21.630;2023-04-03T02:39:48;99996.38;;;5.21;76.58
77939;BME280;67136;47.546;21.630;2023-04-03T02:42:51;100001.72;;;5.18;76.82
77939;BME280;67136;47.546;21.630;2023-04-03T02:45:53;99990.75;;;5.14;77.31
77939;BME280;67136;47.546;21.630;2023-04-03T02:48:56;99997.16;;;5.08;75.33
77939;BME280;67136;47.546;21.630;2023-04-03T02:51:59;99997.44;;;5.04;76.57
77939;BME280;67136;47.546;21.630;2023-04-03T02:55:02;99998.19;;;5.06;77.04
77939;BME280;67136;47.546;21.630;2023-04-03T02:58:06;100001.81;;;5.03;76.41
77939;BME280;67136;47.546;21.630;2023-04-03T03:01:11;99998.59;;;5.00;76.46
77939;BME280;67136;47.546;21.630;2023-04-03T03:04:14;99993.72;;;4.95;76.39
77939;BME280;67136;47.546;21.630;2023-04-03T03:07:17;99999.81;;;4.94;76.29
77939;BME280;67136;47.546;21.630;2023-04-03T03:10:20;100010.16;;;4.94;76.21
77939;BME280;67136;47.546;21.630;2023-04-03T03:13:22;100008.88;;;4.87;76.05
77939;BME280;67136;47.546;21.630;2023-04-03T03:16:25;100005.19;;;4.91;74.56
77939;BME280;67136;47.546;21.630;2023-04-03T03:19:27;100013.00;;;4.77;76.06
77939;BME280;67136;47.546;21.630;2023-04-03T03:22:33;100008.56;;;4.65;76.90
77939;BME280;67136;47.546;21.630;2023-04-03T03:25:40;100000.13;;;4.49;77.77
77939;BME280;67136;47.546;21.630;2023-04-03T03:28:42;100008.44;;;4.40;77.58
77939;BME280;67136;47.546;21.630;2023-04-03T03:31:45;100013.56;;;4.28;78.17
77939;BME280;67136;47.546;21.630;2023-04-03T03:34:48;100013.47;;;4.15;78.05
77939;BME280;67136;47.546;21.630;2023-04-03T03:37:51;100019.22;;;4.06;78.80
77939;BME280;67136;47.546;21.630;2023-04-03T03:40:53;100021.13;;;4.03;78.25
77939;BME280;67136;47.546;21.630;2023-04-03T03:43:57;100002.19;;;4.16;78.20
77939;BME280;67136;47.546;21.630;2023-04-03T03:47:01;100006.81;;;4.11;77.51
77939;BME280;67136;47.546;21.630;2023-04-03T03:50:06;100001.25;;;4.17;77.84
77939;BME280;67136;47.546;21.630;2023-04-03T03:53:08;100007.09;;;4.21;77.64
77939;BME280;67136;47.546;21.630;2023-04-03T03:56:12;100011.62;;;4.17;77.67
77939;BME280;67136;47.546;21.630;2023-04-03T03:59:15;100020.13;;;4.19;77.65
77939;BME280;67136;47.546;21.630;2023-04-03T04:02:19;100019.72;;;4.25;77.55
77939;BME280;67136;47.546;21.630;2023-04-03T04:05:22;100025.94;;;4.23;77.09
77939;BME280;67136;47.546;21.630;2023-04-03T04:08:26;100023.44;;;4.21;76.90
77939;BME280;67136;47.546;21.630;2023-04-03T04:11:29;100027.53;;;4.11;77.81
77939;BME280;67136;47.546;21.630;2023-04-03T04:14:32;100031.13;;;3.95;78.79
77939;BME280;67136;47.546;21.630;2023-04-03T04:17:35;100030.00;;;3.85;78.50
77939;BME280;67136;47.546;21.630;2023-04-03T04:20:38;100029.88;;;3.72;79.14
77939;BME280;67136;47.546;21.630;2023-04-03T04:23:42;100037.72;;;3.70;79.10
77939;BME280;67136;47.546;21.630;2023-04-03T04:26:44;100034.66;;;3.64;79.71
77939;BME280;67136;47.546;21.630;2023-04-03T04:29:48;100030.97;;;3.68;79.15
77939;BME280;67136;47.546;21.630;2023-04-03T04:32:51;100027.84;;;3.77;79.11
77939;BME280;67136;47.546;21.630;2023-04-03T04:35:54;100033.87;;;3.77;78.87
77939;BME280;67136;47.546;21.630;2023-04-03T04:38:57;100036.16;;;3.82;79.34
77939;BME280;67136;47.546;21.630;2023-04-03T04:42:01;100025.66;;;3.99;77.25
77939;BME280;67136;47.546;21.630;2023-04-03T04:45:04;100035.53;;;4.07;77.42
77939;BME280;67136;47.546;21.630;2023-04-03T04:48:08;100037.31;;;4.06;77.37
77939;BME280;67136;47.546;21.630;2023-04-03T04:51:11;100033.81;;;4.21;77.95
77939;BME280;67136;47.546;21.630;2023-04-03T04:54:14;100024.56;;;4.31;77.19
77939;BME280;67136;47.546;21.630;2023-04-03T04:57:17;100025.75;;;4.40;76.61
77939;BME280;67136;47.546;21.630;2023-04-03T05:00:21;100027.59;;;4.52;75.86
77939;BME280;67136;47.546;21.630;2023-04-03T05:03:24;100037.34;;;4.61;75.84
77939;BME280;67136;47.546;21.630;2023-04-03T05:08:48;100046.06;;;5.91;71.11
77939;BME280;67136;47.546;21.630;2023-04-03T05:11:52;100046.06;;;5.91;71.11
77939;BME280;67136;47.546;21.630;2023-04-03T05:14:55;100043.53;;;5.65;71.95
77939;BME280;67136;47.546;21.630;2023-04-03T05:17:59;100047.53;;;6.08;70.09
77939;BME280;67136;47.546;21.630;2023-04-03T05:21:02;100054.16;;;6.12;69.78
77939;BME280;67136;47.546;21.630;2023-04-03T05:24:05;100051.50;;;6.01;69.82
77939;BME280;67136;47.546;21.630;2023-04-03T05:27:12;100053.84;;;6.29;69.40
77939;BME280;67136;47.546;21.630;2023-04-03T05:30:16;100051.47;;;6.26;69.79
77939;BME280;67136;47.546;21.630;2023-04-03T05:33:20;100054.78;;;6.53;68.18
77939;BME280;67136;47.546;21.630;2023-04-03T05:36:23;100059.56;;;6.83;68.02
77939;BME280;67136;47.546;21.630;2023-04-03T05:39:27;100037.53;;;6.88;67.30
77939;BME280;67136;47.546;21.630;2023-04-03T05:42:31;100043.03;;;6.84;66.49
77939;BME280;67136;47.546;21.630;2023-04-03T05:45:34;100050.25;;;6.80;67.08
77939;BME280;67136;47.546;21.630;2023-04-03T05:48:38;100047.22;;;6.74;66.72
77939;BME280;67136;47.546;21.630;2023-04-03T05:51:41;100048.34;;;6.82;65.59
77939;BME280;67136;47.546;21.630;2023-04-03T05:54:45;100039.91;;;6.91;66.03
77939;BME280;67136;47.546;21.630;2023-04-03T05:57:51;100071.53;;;6.85;66.26
77939;BME280;67136;47.546;21.630;2023-04-03T06:00:54;100063.06;;;6.58;66.74
77939;BME280;67136;47.546;21.630;2023-04-03T06:03:58;100065.53;;;6.96;65.64
77939;BME280;67136;47.546;21.630;2023-04-03T06:07:01;100082.44;;;7.14;64.62
77939;BME280;67136;47.546;21.630;2023-04-03T06:10:05;100086.50;;;7.76;64.17
77939;BME280;67136;47.546;21.630;2023-04-03T06:13:08;100086.91;;;8.05;60.76
77939;BME280;67136;47.546;21.630;2023-04-03T06:16:12;100090.69;;;8.46;60.19
77939;BME280;67136;47.546;21.630;2023-04-03T06:19:18;100079.88;;;8.73;59.01
77939;BME280;67136;47.546;21.630;2023-04-03T06:22:22;100088.63;;;8.72;59.39
77939;BME280;67136;47.546;21.630;2023-04-03T06:25:25;100085.53;;;8.89;57.92
77939;BME280;67136;47.546;21.630;2023-04-03T06:28:29;100083.66;;;8.69;56.95
77939;BME280;67136;47.546;21.630;2023-04-03T06:31:31;100096.00;;;8.67;58.57
77939;BME280;67136;47.546;21.630;2023-04-03T06:34:34;100100.03;;;8.60;58.16
77939;BME280;67136;47.546;21.630;2023-04-03T06:37:37;100108.56;;;9.38;56.17
77939;BME280;67136;47.546;21.630;2023-04-03T06:40:40;100100.38;;;9.42;57.01
77939;BME280;67136;47.546;21.630;2023-04-03T06:43:43;100102.78;;;9.86;54.15
77939;BME280;67136;47.546;21.630;2023-04-03T06:46:47;100099.31;;;10.18;53.80
77939;BME280;67136;47.546;21.630;2023-04-03T06:49:50;100111.37;;;10.09;54.31
77939;BME280;67136;47.546;21.630;2023-04-03T06:52:53;100107.59;;;10.23;53.19
77939;BME280;67136;47.546;21.630;2023-04-03T06:55:56;100103.91;;;10.55;53.15
77939;BME280;67136;47.546;21.630;2023-04-03T06:58:58;100113.28;;;10.58;52.48
77939;BME280;67136;47.546;21.630;2023-04-03T07:02:02;100115.34;;;10.54;51.93
77939;BME280;67136;47.546;21.630;2023-04-03T07:05:05;100119.97;;;10.81;52.44
77939;BME280;67136;47.546;21.630;2023-04-03T07:08:08;100116.59;;;10.60;52.11
77939;BME280;67136;47.546;21.630;2023-04-03T07:11:12;100121.75;;;10.50;50.66
77939;BME280;67136;47.546;21.630;2023-04-03T07:14:14;100128.00;;;10.89;48.60
77939;BME280;67136;47.546;21.630;2023-04-03T07:17:17;100128.87;;;11.77;48.28
77939;BME280;67136;47.546;21.630;2023-04-03T07:20:20;100132.72;;;12.01;46.94
77939;BME280;67136;47.546;21.630;2023-04-03T07:23:22;100133.97;;;12.63;45.41
77939;BME280;67136;47.546;21.630;2023-04-03T07:26:25;100128.84;;;12.15;44.71
77939;BME280;67136;47.546;21.630;2023-04-03T07:29:28;100135.56;;;12.83;44.27
77939;BME280;67136;47.546;21.630;2023-04-03T07:32:30;100132.78;;;13.21;42.39
77939;BME280;67136;47.546;21.630;2023-04-03T07:35:33;100135.22;;;13.32;42.32
77939;BME280;67136;47.546;21.630;2023-04-03T07:38:36;100138.84;;;14.44;39.94
77939;BME280;67136;47.546;21.630;2023-04-03T07:41:39;100152.19;;;13.55;40.61
77939;BME280;67136;47.546;21.630;2023-04-03T07:44:42;100137.91;;;14.10;40.55
77939;BME280;67136;47.546;21.630;2023-04-03T07:47:45;100137.78;;;13.59;41.12
77939;BME280;67136;47.546;21.630;2023-04-03T07:50:48;100134.31;;;14.54;39.06
77939;BME280;67136;47.546;21.630;2023-04-03T07:53:51;100144.69;;;13.95;40.19
77939;BME280;67136;47.546;21.630;2023-04-03T07:56:53;100144.25;;;13.82;39.63
77939;BME280;67136;47.546;21.630;2023-04-03T07:59:56;100135.41;;;14.77;38.08
77939;BME280;67136;47.546;21.630;2023-04-03T08:02:58;100137.84;;;14.71;37.70
77939;BME280;67136;47.546;21.630;2023-04-03T08:06:04;100140.53;;;15.21;36.37
77939;BME280;67136;47.546;21.630;2023-04-03T08:09:14;100150.88;;;15.56;36.38
77939;BME280;67136;47.546;21.630;2023-04-03T08:12:18;100156.69;;;15.75;35.48
77939;BME280;67136;47.546;21.630;2023-04-03T08:15:20;100161.50;;;15.96;35.32
77939;BME280;67136;47.546;21.630;2023-04-03T08:18:24;100159.56;;;14.65;36.01
77939;BME280;67136;47.546;21.630;2023-04-03T08:21:26;100162.13;;;15.32;36.08
77939;BME280;67136;47.546;21.630;2023-04-03T08:24:29;100156.56;;;16.17;34.59
77939;BME280;67136;47.546;21.630;2023-04-03T08:27:31;100175.84;;;17.12;33.15
77939;BME280;67136;47.546;21.630;2023-04-03T08:30:41;100176.91;;;17.03;33.04
77939;BME280;67136;47.546;21.630;2023-04-03T08:33:44;100173.94;;;16.98;32.52
77939;BME280;67136;47.546;21.630;2023-04-03T08:36:47;100173.69;;;16.05;32.87
77939;BME280;67136;47.546;21.630;2023-04-03T08:39:50;100172.50;;;16.72;32.94
77939;BME280;67136;47.546;21.630;2023-04-03T08:46:01;100183.81;;;17.04;31.83
77939;BME280;67136;47.546;21.630;2023-04-03T08:49:21;100175.66;;;15.95;31.80
77939;BME280;67136;47.546;21.630;2023-04-03T08:52:41;100181.03;;;17.98;30.79
77939;BME280;67136;47.546;21.630;2023-04-03T08:55:46;100183.19;;;17.72;30.69
77939;BME280;67136;47.546;21.630;2023-04-03T08:58:59;100181.41;;;17.33;30.43
77939;BME280;67136;47.546;21.630;2023-04-03T09:02:12;100176.69;;;18.27;29.79
77939;BME280;67136;47.546;21.630;2023-04-03T09:05:20;100177.97;;;18.69;28.94
77939;BME280;67136;47.546;21.630;2023-04-03T09:08:33;100167.09;;;18.04;28.52
77939;BME280;67136;47.546;21.630;2023-04-03T09:18:37;100182.41;;;17.94;28.20
77939;BME280;67136;47.546;21.630;2023-04-03T09:21:44;100190.84;;;19.15;28.23
77939;BME280;67136;47.546;21.630;2023-04-03T09:24:50;100189.03;;;18.72;29.10
77939;BME280;67136;47.546;21.630;2023-04-03T09:27:55;100196.34;;;18.99;28.30
77939;BME280;67136;47.546;21.630;2023-04-03T09:31:00;100181.66;;;19.97;27.58
77939;BME280;67136;47.546;21.630;2023-04-03T09:34:07;100180.63;;;19.98;26.92
77939;BME280;67136;47.546;21.630;2023-04-03T09:40:45;100195.78;;;19.47;26.52
77939;BME280;67136;47.546;21.630;2023-04-03T09:43:53;100196.16;;;18.12;28.29
77939;BME280;67136;47.546;21.630;2023-04-03T09:46:57;100204.13;;;17.81;29.71
77939;BME280;67136;47.546;21.630;2023-04-03T09:56:37;100202.38;;;19.22;27.43
77939;BME280;67136;47.546;21.630;2023-04-03T10:00:01;100220.06;;;20.37;26.29
77939;BME280;67136;47.546;21.630;2023-04-03T10:03:28;100202.94;;;19.03;27.62
77939;BME280;67136;47.546;21.630;2023-04-03T10:06:43;100205.97;;;19.79;26.83
77939;BME280;67136;47.546;21.630;2023-04-03T10:09:55;100207.34;;;19.40;27.08
77939;BME280;67136;47.546;21.630;2023-04-03T10:13:09;100211.34;;;20.43;25.72
77939;BME280;67136;47.546;21.630;2023-04-03T10:16:28;100205.34;;;20.34;25.16
77939;BME280;67136;47.546;21.630;2023-04-03T10:19:40;100208.72;;;20.07;25.21
77939;BME280;67136;47.546;21.630;2023-04-03T10:47:15;100220.50;;;20.40;25.10
77939;BME280;67136;47.546;21.630;2023-04-03T10:54:03;100221.97;;;20.22;25.03
77939;BME280;67136;47.546;21.630;2023-04-03T10:57:10;100219.59;;;20.82;24.10
77939;BME280;67136;47.546;21.630;2023-04-03T11:00:22;100221.16;;;20.98;24.54
77939;BME280;67136;47.546;21.630;2023-04-03T11:03:35;100210.69;;;20.41;24.78
77939;BME280;67136;47.546;21.630;2023-04-03T11:06:48;100221.19;;;21.38;23.98
77939;BME280;67136;47.546;21.630;2023-04-03T11:10:03;100200.28;;;19.83;25.39
77939;BME280;67136;47.546;21.630;2023-04-03T11:13:15;100223.63;;;21.33;23.57
77939;BME280;67136;47.546;21.630;2023-04-03T11:16:24;100220.72;;;21.22;24.34
77939;BME280;67136;47.546;21.630;2023-04-03T11:22:43;100218.59;;;22.11;23.85
77939;BME280;67136;47.546;21.630;2023-04-03T11:25:53;100192.63;;;22.66;22.84
77939;BME280;67136;47.546;21.630;2023-04-03T11:29:00;100207.16;;;21.10;24.71
77939;BME280;67136;47.546;21.630;2023-04-03T11:35:19;100195.50;;;21.58;23.67
77939;BME280;67136;47.546;21.630;2023-04-03T11:38:55;100198.25;;;21.37;23.47
77939;BME280;67136;47.546;21.630;2023-04-03T11:42:25;100192.75;;;22.97;22.27
77939;BME280;67136;47.546;21.630;2023-04-03T11:45:58;100205.09;;;22.46;22.56
77939;BME280;67136;47.546;21.630;2023-04-03T11:49:03;100192.78;;;20.77;24.79
77939;BME280;67136;47.546;21.630;2023-04-03T11:52:10;100182.97;;;20.50;24.29
77939;BME280;67136;47.546;21.630;2023-04-03T11:58:35;100199.69;;;20.99;24.71
77939;BME280;67136;47.546;21.630;2023-04-03T12:01:43;100192.53;;;20.72;24.07
77939;BME280;67136;47.546;21.630;2023-04-03T12:08:46;100188.66;;;21.02;24.03
77939;BME280;67136;47.546;21.630;2023-04-03T12:11:49;100196.69;;;21.56;23.38
77939;BME280;67136;47.546;21.630;2023-04-03T12:14:52;100183.31;;;21.83;23.07
77939;BME280;67136;47.546;21.630;2023-04-03T12:17:55;100184.34;;;21.35;23.76
77939;BME280;67136;47.546;21.630;2023-04-03T12:20:58;100172.69;;;21.96;23.05
77939;BME280;67136;47.546;21.630;2023-04-03T12:30:25;100178.66;;;21.04;23.68
77939;BME280;67136;47.546;21.630;2023-04-03T12:33:38;100187.94;;;19.39;25.57
77939;BME280;67136;47.546;21.630;2023-04-03T12:37:01;100192.19;;;20.54;24.55
77939;BME280;67136;47.546;21.630;2023-04-03T12:46:49;100186.59;;;20.70;24.31
77939;BME280;67136;47.546;21.630;2023-04-03T12:49:53;100190.09;;;20.22;24.91
77939;BME280;67136;47.546;21.630;2023-04-03T12:56:29;100184.62;;;19.88;24.71
77939;BME280;67136;47.546;21.630;2023-04-03T12:59:34;100171.31;;;20.78;23.42
77939;BME280;67136;47.546;21.630;2023-04-03T13:02:44;100204.13;;;20.37;24.59
77939;BME280;67136;47.546;21.630;2023-04-03T13:05:47;100185.75;;;18.99;25.66
77939;BME280;67136;47.546;21.630;2023-04-03T13:08:58;100189.75;;;18.66;26.18
77939;BME280;67136;47.546;21.630;2023-04-03T13:12:13;100191.03;;;18.70;26.16
77939;BME280;67136;47.546;21.630;2023-04-03T13:15:25;100185.19;;;19.47;25.74
77939;BME280;67136;47.546;21.630;2023-04-03T13:18:33;100179.78;;;18.31;27.02
77939;BME280;67136;47.546;21.630;2023-04-03T13:21:37;100189.06;;;19.81;25.45
77939;BME280;67136;47.546;21.630;2023-04-03T13:24:39;100194.28;;;18.43;27.09
77939;BME280;67136;47.546;21.630;2023-04-03T13:27:42;100188.59;;;18.83;26.38
77939;BME280;67136;47.546;21.630;2023-04-03T13:31:03;100194.16;;;19.46;25.77
77939;BME280;67136;47.546;21.630;2023-04-03T13:34:17;100195.75;;;18.60;26.46
77939;BME280;67136;47.546;21.630;2023-04-03T13:37:32;100193.94;;;18.01;28.12
77939;BME280;67136;47.546;21.630;2023-04-03T13:40:48;100190.63;;;17.37;28.45
77939;BME280;67136;47.546;21.630;2023-04-03T13:43:51;100180.69;;;18.46;27.22
77939;BME280;67136;47.546;21.630;2023-04-03T13:53:15;100186.88;;;16.77;28.90
77939;BME280;67136;47.546;21.630;2023-04-03T13:56:23;100189.37;;;17.17;28.71
77939;BME280;67136;47.546;21.630;2023-04-03T13:59:31;100198.75;;;18.42;27.28
77939;BME280;67136;47.546;21.630;2023-04-03T14:02:34;100191.16;;;16.78;29.07
77939;BME280;67136;47.546;21.630;2023-04-03T14:05:37;100199.59;;;16.34;29.90
77939;BME280;67136;47.546;21.630;2023-04-03T14:08:40;100202.41;;;16.24;30.22
77939;BME280;67136;47.546;21.630;2023-04-03T14:11:48;100210.34;;;16.56;29.70
77939;BME280;67136;47.546;21.630;2023-04-03T14:14:53;100206.69;;;16.09;30.07
77939;BME280;67136;47.546;21.630;2023-04-03T14:17:55;100203.56;;;15.14;31.31
77939;BME280;67136;47.546;21.630;2023-04-03T14:20:58;100191.50;;;16.03;30.77
77939;BME280;67136;47.546;21.630;2023-04-03T14:24:01;100193.19;;;16.52;29.89
77939;BME280;67136;47.546;21.630;2023-04-03T14:27:11;100184.31;;;15.47;31.40
77939;BME280;67136;47.546;21.630;2023-04-03T14:30:32;100198.41;;;15.88;30.71
77939;BME280;67136;47.546;21.630;2023-04-03T14:33:35;100185.38;;;15.86;31.29
77939;BME280;67136;47.546;21.630;2023-04-03T14:36:39;100191.88;;;15.42;31.64
77939;BME280;67136;47.546;21.630;2023-04-03T14:39:44;100186.44;;;14.33;33.12
77939;BME280;67136;47.546;21.630;2023-04-03T14:42:47;100186.78;;;14.81;32.83
77939;BME280;67136;47.546;21.630;2023-04-03T14:45:51;100186.66;;;13.69;34.61
77939;BME280;67136;47.546;21.630;2023-04-03T14:48:54;100195.56;;;14.64;33.10
77939;BME280;67136;47.546;21.630;2023-04-03T14:51:57;100198.34;;;12.94;35.19
77939;BME280;67136;47.546;21.630;2023-04-03T14:55:01;100222.09;;;13.11;35.36
77939;BME280;67136;47.546;21.630;2023-04-03T14:58:04;100208.69;;;12.49;35.89
77939;BME280;67136;47.546;21.630;2023-04-03T15:01:10;100216.06;;;12.92;35.86
77939;BME280;67136;47.546;21.630;2023-04-03T15:04:18;100209.53;;;12.30;36.87
77939;BME280;67136;47.546;21.630;2023-04-03T15:07:22;100204.69;;;12.55;36.97
77939;BME280;67136;47.546;21.630;2023-04-03T15:10:28;100198.12;;;11.44;38.69
77939;BME280;67136;47.546;21.630;2023-04-03T15:13:31;100205.78;;;10.87;39.81
77939;BME280;67136;47.546;21.630;2023-04-03T15:16:34;100195.19;;;10.88;39.59
77939;BME280;67136;47.546;21.630;2023-04-03T15:19:38;100208.56;;;10.65;40.82
77939;BME280;67136;47.546;21.630;2023-04-03T15:22:40;100206.19;;;10.21;41.72
77939;BME280;67136;47.546;21.630;2023-04-03T15:25:45;100208.38;;;9.62;43.00
77939;BME280;67136;47.546;21.630;2023-04-03T15:28:48;100229.59;;;9.68;42.70
77939;BME280;67136;47.546;21.630;2023-04-03T15:31:51;100232.50;;;9.43;43.03
77939;BME280;67136;47.546;21.630;2023-04-03T15:34:55;100231.56;;;9.11;43.97
77939;BME280;67136;47.546;21.630;2023-04-03T15:37:58;100220.88;;;8.70;44.00
77939;BME280;67136;47.546;21.630;2023-04-03T15:41:01;100226.91;;;8.70;44.06
77939;BME280;67136;47.546;21.630;2023-04-03T15:44:03;100225.84;;;8.84;43.68
77939;BME280;67136;47.546;21.630;2023-04-03T15:47:06;100233.50;;;8.18;45.13
77939;BME280;67136;47.546;21.630;2023-04-03T15:50:09;100242.38;;;7.92;45.62
77939;BME280;67136;47.546;21.630;2023-04-03T15:53:11;100234.13;;;7.38;48.35
77939;BME280;67136;47.546;21.630;2023-04-03T15:56:14;100237.81;;;7.10;47.39
77939;BME280;67136;47.546;21.630;2023-04-03T15:59:16;100250.72;;;6.87;48.79
77939;BME280;67136;47.546;21.630;2023-04-03T16:02:20;100254.44;;;6.58;49.06
77939;BME280;67136;47.546;21.630;2023-04-03T16:05:24;100249.12;;;6.07;50.65
77939;BME280;67136;47.546;21.630;2023-04-03T16:08:27;100248.19;;;5.82;51.29
77939;BME280;67136;47.546;21.630;2023-04-03T16:11:30;100256.56;;;5.73;51.72
77939;BME280;67136;47.546;21.630;2023-04-03T16:14:32;100259.38;;;5.42;52.78
77939;BME280;67136;47.546;21.630;2023-04-03T16:17:37;100282.38;;;5.34;52.55
77939;BME280;67136;47.546;21.630;2023-04-03T16:20:40;100277.28;;;5.18;53.02
77939;BME280;67136;47.546;21.630;2023-04-03T16:23:44;100288.75;;;5.28;52.77
77939;BME280;67136;47.546;21.630;2023-04-03T16:26:46;100301.22;;;5.07;53.11
77939;BME280;67136;47.546;21.630;2023-04-03T16:29:49;100295.78;;;5.26;52.35
77939;BME280;67136;47.546;21.630;2023-04-03T16:32:52;100291.59;;;5.52;52.52
77939;BME280;67136;47.546;21.630;2023-04-03T16:35:55;100305.34;;;5.26;53.16
77939;BME280;67136;47.546;21.630;2023-04-03T16:38:58;100295.06;;;5.10;52.93
77939;BME280;67136;47.546;21.630;2023-04-03T16:42:01;100301.06;;;5.11;53.10
77939;BME280;67136;47.546;21.630;2023-04-03T16:45:04;100303.84;;;5.22;52.78
77939;BME280;67136;47.546;21.630;2023-04-03T16:48:07;100303.66;;;4.96;54.10
77939;BME280;67136;47.546;21.630;2023-04-03T16:51:10;100311.37;;;4.82;54.60
77939;BME280;67136;47.546;21.630;2023-04-03T16:54:14;100307.09;;;4.67;55.43
77939;BME280;67136;47.546;21.630;2023-04-03T16:57:16;100317.53;;;4.52;55.08
77939;BME280;67136;47.546;21.630;2023-04-03T17:00:22;100314.59;;;4.42;54.30
77939;BME280;67136;47.546;21.630;2023-04-03T17:03:24;100319.00;;;4.26;54.97
77939;BME280;67136;47.546;21.630;2023-04-03T17:06:28;100318.25;;;4.24;54.73
77939;BME280;67136;47.546;21.630;2023-04-03T17:09:31;100332.13;;;4.23;55.37
77939;BME280;67136;47.546;21.630;2023-04-03T17:12:34;100345.31;;;4.03;55.92
77939;BME280;67136;47.546;21.630;2023-04-03T17:15:37;100348.50;;;4.08;55.85
77939;BME280;67136;47.546;21.630;2023-04-03T17:18:41;100359.81;;;3.90;56.20
77939;BME280;67136;47.546;21.630;2023-04-03T17:21:44;100365.00;;;3.90;55.60
77939;BME280;67136;47.546;21.630;2023-04-03T17:24:47;100360.62;;;3.75;56.21
77939;BME280;67136;47.546;21.630;2023-04-03T17:27:50;100356.53;;;3.55;56.60
77939;BME280;67136;47.546;21.630;2023-04-03T17:30:57;100369.16;;;3.77;56.25
77939;BME280;67136;47.546;21.630;2023-04-03T17:34:00;100386.28;;;3.47;56.92